createdAt,value
2022-12-03T00:00:02.110Z,20
2022-12-03T00:15:05.325Z,19.9
2022-12-03T00:30:02.051Z,19.8
2022-12-03T00:45:06.127Z,19.7
2022-12-03T01:00:06.274Z,19.7
2022-12-03T01:15:03.827Z,19.6
2022-12-03T01:30:04.294Z,19.6
2022-12-03T01:45:02.209Z,19.5
2022-12-03T02:00:03.824Z,19.5
2022-12-03T02:15:05.275Z,19.5
2022-12-03T02:30:05.020Z,19.5
2022-12-03T02:45:04.309Z,19.3
2022-12-03T03:00:04.199Z,19.2
2022-12-03T03:15:05.092Z,19
2022-12-03T03:30:04.819Z,18.9
2022-12-03T03:45:05.117Z,18.8
2022-12-03T04:00:05.814Z,18.8
2022-12-03T04:15:04.017Z,18.8
2022-12-03T04:30:01.875Z,18.7
2022-12-03T04:45:04.088Z,18.7
2022-12-03T05:00:03.006Z,18.6
2022-12-03T05:15:03.043Z,18.5
2022-12-03T05:30:01.921Z,18.4
2022-12-03T05:45:04.142Z,18.4
2022-12-03T06:00:02.039Z,18.3
2022-12-03T06:15:02.265Z,18.3
2022-12-03T06:30:03.900Z,18.3
2022-12-03T06:45:03.843Z,18.2
2022-12-03T07:00:05.224Z,18.2
2022-12-03T07:15:01.955Z,18.3
2022-12-03T07:30:02.231Z,18.5
2022-12-03T07:45:05.884Z,18.7
2022-12-03T08:00:04.100Z,19
2022-12-03T08:15:01.982Z,19.4
2022-12-03T08:30:04.219Z,19.6
2022-12-03T08:45:02.079Z,19.9
2022-12-03T09:00:02.311Z,20.1
2022-12-03T09:15:04.956Z,20.2
2022-12-03T09:30:06.487Z,20.5
2022-12-03T09:45:03.140Z,20.6
2022-12-03T10:00:01.886Z,20.7
2022-12-03T10:15:03.087Z,20.8
2022-12-03T10:30:03.131Z,20.8
2022-12-03T10:45:06.190Z,20.8
2022-12-03T11:00:02.298Z,20.8
2022-12-03T11:15:03.940Z,20.8
2022-12-03T11:30:05.967Z,20.7
2022-12-03T11:45:03.988Z,20.8
2022-12-03T12:00:02.854Z,20.8
2022-12-03T12:15:01.862Z,20.9
2022-12-03T12:30:06.048Z,21
2022-12-03T12:45:06.273Z,21.1
2022-12-03T13:00:04.849Z,21.2
2022-12-03T13:15:02.166Z,21.3
2022-12-03T13:30:05.348Z,21.5
2022-12-03T13:45:04.236Z,21.6
2022-12-03T14:00:04.158Z,21.6
2022-12-03T14:15:04.010Z,21.7
2022-12-03T14:30:05.430Z,21.8
2022-12-03T14:45:04.058Z,21.8
2022-12-03T15:00:02.943Z,21.8
2022-12-03T15:15:04.132Z,21.9
2022-12-03T15:30:05.538Z,21.9
2022-12-03T15:45:06.198Z,22
2022-12-03T16:00:06.327Z,22
2022-12-03T16:15:04.539Z,22
2022-12-03T16:30:04.367Z,22.1
2022-12-03T16:45:03.274Z,22.2
2022-12-03T17:00:02.206Z,22.3
2022-12-03T17:15:03.150Z,22.4
2022-12-03T17:30:03.887Z,22.5
2022-12-03T17:45:04.499Z,22.6
2022-12-03T18:00:05.270Z,22.6
2022-12-03T18:15:04.053Z,22.6
2022-12-03T18:30:04.972Z,22.7
2022-12-03T18:45:05.202Z,22.7
2022-12-03T19:00:01.838Z,22.7
2022-12-03T19:30:03.918Z,22.8
2022-12-03T19:45:06.454Z,22.8
2022-12-03T20:00:04.056Z,22.9
2022-12-03T20:15:01.954Z,22.9
2022-12-03T20:30:02.050Z,22.9
2022-12-03T20:45:04.188Z,23
2022-12-03T21:00:03.170Z,23
2022-12-03T21:15:05.138Z,22.9
2022-12-03T21:30:05.953Z,22.8
2022-12-03T21:45:05.039Z,22.6
2022-12-03T22:00:02.353Z,22.4
2022-12-03T22:30:03.176Z,22
2022-12-03T22:45:02.352Z,21.8
2022-12-03T23:00:02.819Z,21.6
2022-12-03T23:30:06.083Z,21.3
